sensor_id;sensor_type;location;lat;lon;timestamp;temperature;humidity
10583;DHT22;33679;51.218;6.786;2024-01-30T00:00:52;12.60;99.90
10583;DHT22;33679;51.218;6.786;2024-01-30T00:03:24;12.60;99.90
10583;DHT22;33679;51.218;6.786;2024-01-30T00:05:57;12.50;99.90
10583;DHT22;33679;51.218;6.786;2024-01-30T00:08:31;12.50;99.90
10583;DHT22;33679;51.218;6.786;2024-01-30T00:11:07;12.50;99.90
10583;DHT22;33679;51.218;6.786;2024-01-30T00:13:40;12.50;99.90
10583;DHT22;33679;51.218;6.786;2024-01-30T00:16:20;12.50;99.90
10583;DHT22;33679;51.218;6.786;2024-01-30T00:18:53;12.50;99.90
10583;DHT22;33679;51.218;6.786;2024-01-30T00:21:27;12.50;99.90
10583;DHT22;33679;51.218;6.786;2024-01-30T00:24:00;12.50;99.90
10583;DHT22;33679;51.218;6.786;2024-01-30T00:26:36;12.50;99.90
10583;DHT22;33679;51.218;6.786;2024-01-30T00:29:08;12.50;99.90
10583;DHT22;33679;51.218;6.786;2024-01-30T00:31:44;12.50;99.90
10583;DHT22;33679;51.218;6.786;2024-01-30T00:34:17;12.50;99.90
10583;DHT22;33679;51.218;6.786;2024-01-30T00:36:49;12.40;99.90
10583;DHT22;33679;51.218;6.786;2024-01-30T00:39:23;12.40;99.90
10583;DHT22;33679;51.218;6.786;2024-01-30T00:41:57;12.40;99.90
10583;DHT22;33679;51.218;6.786;2024-01-30T00:44:30;12.40;99.90
10583;DHT22;33679;51.218;6.786;2024-01-30T00:47:05;12.40;99.90
10583;DHT22;33679;51.218;6.786;2024-01-30T00:49:37;12.40;99.90
10583;DHT22;33679;51.218;6.786;2024-01-30T00:52:10;12.40;99.90
10583;DHT22;33679;51.218;6.786;2024-01-30T00:54:44;12.30;99.90
10583;DHT22;33679;51.218;6.786;2024-01-30T00:57:18;12.30;99.90
10583;DHT22;33679;51.218;6.786;2024-01-30T00:59:50;12.30;99.90
10583;DHT22;33679;51.218;6.786;2024-01-30T01:02:23;12.30;99.90
10583;DHT22;33679;51.218;6.786;2024-01-30T01:04:55;12.30;99.90
10583;DHT22;33679;51.218;6.786;2024-01-30T01:07:27;12.20;99.90
10583;DHT22;33679;51.218;6.786;2024-01-30T01:10:02;12.20;99.90
10583;DHT22;33679;51.218;6.786;2024-01-30T01:12:35;12.20;99.90
10583;DHT22;33679;51.218;6.786;2024-01-30T01:15:08;12.20;99.90
10583;DHT22;33679;51.218;6.786;2024-01-30T01:17:41;12.10;99.90
10583;DHT22;33679;51.218;6.786;2024-01-30T01:20:14;12.10;99.90
10583;DHT22;33679;51.218;6.786;2024-01-30T01:22:46;12.10;99.90
10583;DHT22;33679;51.218;6.786;2024-01-30T01:25:20;12.10;99.90
10583;DHT22;33679;51.218;6.786;2024-01-30T01:27:54;12.10;99.90
10583;DHT22;33679;51.218;6.786;2024-01-30T01:30:27;12.10;99.90
10583;DHT22;33679;51.218;6.786;2024-01-30T01:33:00;12.00;99.90
10583;DHT22;33679;51.218;6.786;2024-01-30T01:35:33;12.00;99.90
10583;DHT22;33679;51.218;6.786;2024-01-30T01:38:05;12.00;99.90
10583;DHT22;33679;51.218;6.786;2024-01-30T01:40:39;12.00;99.90
10583;DHT22;33679;51.218;6.786;2024-01-30T01:43:12;12.00;99.90
10583;DHT22;33679;51.218;6.786;2024-01-30T01:45:45;12.00;99.90
10583;DHT22;33679;51.218;6.786;2024-01-30T01:48:20;12.00;99.90
10583;DHT22;33679;51.218;6.786;2024-01-30T01:50:53;12.00;99.90
10583;DHT22;33679;51.218;6.786;2024-01-30T01:53:26;12.00;99.90
10583;DHT22;33679;51.218;6.786;2024-01-30T01:56:00;12.00;99.90
10583;DHT22;33679;51.218;6.786;2024-01-30T01:58:33;12.00;99.90
10583;DHT22;33679;51.218;6.786;2024-01-30T02:01:06;12.00;99.90
10583;DHT22;33679;51.218;6.786;2024-01-30T02:03:40;11.90;99.90
10583;DHT22;33679;51.218;6.786;2024-01-30T02:06:13;11.90;99.90
10583;DHT22;33679;51.218;6.786;2024-01-30T02:08:46;11.90;99.90
10583;DHT22;33679;51.218;6.786;2024-01-30T02:11:20;11.90;99.90
10583;DHT22;33679;51.218;6.786;2024-01-30T02:13:56;11.90;99.90
10583;DHT22;33679;51.218;6.786;2024-01-30T02:16:28;11.90;99.90
10583;DHT22;33679;51.218;6.786;2024-01-30T02:19:01;11.90;99.90
10583;DHT22;33679;51.218;6.786;2024-01-30T02:21:35;11.90;99.90
10583;DHT22;33679;51.218;6.786;2024-01-30T02:24:07;11.90;99.90
10583;DHT22;33679;51.218;6.786;2024-01-30T02:26:40;11.90;99.90
10583;DHT22;33679;51.218;6.786;2024-01-30T02:29:13;11.90;99.90
10583;DHT22;33679;51.218;6.786;2024-01-30T02:31:46;11.90;99.90
10583;DHT22;33679;51.218;6.786;2024-01-30T02:34:19;11.90;99.90
10583;DHT22;33679;51.218;6.786;2024-01-30T02:36:55;11.90;99.90
10583;DHT22;33679;51.218;6.786;2024-01-30T02:39:28;11.90;99.90
10583;DHT22;33679;51.218;6.786;2024-01-30T02:42:01;11.90;99.90
10583;DHT22;33679;51.218;6.786;2024-01-30T02:44:33;11.90;99.90
10583;DHT22;33679;51.218;6.786;2024-01-30T02:47:06;11.90;99.90
10583;DHT22;33679;51.218;6.786;2024-01-30T02:49:42;11.90;99.90
10583;DHT22;33679;51.218;6.786;2024-01-30T02:52:16;11.80;99.90
10583;DHT22;33679;51.218;6.786;2024-01-30T02:54:48;11.80;99.90
10583;DHT22;33679;51.218;6.786;2024-01-30T02:57:21;11.80;99.90
10583;DHT22;33679;51.218;6.786;2024-01-30T02:59:54;11.80;99.90
10583;DHT22;33679;51.218;6.786;2024-01-30T03:02:27;11.80;99.90
10583;DHT22;33679;51.218;6.786;2024-01-30T03:05:00;11.80;99.90
10583;DHT22;33679;51.218;6.786;2024-01-30T03:07:34;11.90;99.90
10583;DHT22;33679;51.218;6.786;2024-01-30T03:10:07;11.80;99.90
10583;DHT22;33679;51.218;6.786;2024-01-30T03:12:39;11.80;99.90
10583;DHT22;33679;51.218;6.786;2024-01-30T03:15:12;11.80;99.90
10583;DHT22;33679;51.218;6.786;2024-01-30T03:17:46;11.80;99.90
10583;DHT22;33679;51.218;6.786;2024-01-30T03:20:18;11.80;99.90
10583;DHT22;33679;51.218;6.786;2024-01-30T03:22:53;11.80;99.90
10583;DHT22;33679;51.218;6.786;2024-01-30T03:25:26;11.90;99.90
10583;DHT22;33679;51.218;6.786;2024-01-30T03:27:58;11.90;99.90
10583;DHT22;33679;51.218;6.786;2024-01-30T03:30:31;11.90;99.90
10583;DHT22;33679;51.218;6.786;2024-01-30T03:33:04;11.90;99.90
10583;DHT22;33679;51.218;6.786;2024-01-30T03:35:37;11.90;99.90
10583;DHT22;33679;51.218;6.786;2024-01-30T03:38:10;12.00;99.90
10583;DHT22;33679;51.218;6.786;2024-01-30T03:40:43;12.00;99.90
10583;DHT22;33679;51.218;6.786;2024-01-30T03:43:16;12.00;99.90
10583;DHT22;33679;51.218;6.786;2024-01-30T03:45:48;11.90;99.90
10583;DHT22;33679;51.218;6.786;2024-01-30T03:48:21;11.90;99.90
10583;DHT22;33679;51.218;6.786;2024-01-30T03:50:54;11.90;99.90
10583;DHT22;33679;51.218;6.786;2024-01-30T03:53:28;11.90;99.90
10583;DHT22;33679;51.218;6.786;2024-01-30T03:56:00;11.90;99.90
10583;DHT22;33679;51.218;6.786;2024-01-30T03:58:32;11.90;99.90
10583;DHT22;33679;51.218;6.786;2024-01-30T04:01:06;11.90;99.90
10583;DHT22;33679;51.218;6.786;2024-01-30T04:03:38;11.90;99.90
10583;DHT22;33679;51.218;6.786;2024-01-30T04:06:11;11.90;99.90
10583;DHT22;33679;51.218;6.786;2024-01-30T04:08:45;11.90;99.90
10583;DHT22;33679;51.218;6.786;2024-01-30T04:11:21;11.90;99.90
10583;DHT22;33679;51.218;6.786;2024-01-30T04:13:53;11.90;99.90
10583;DHT22;33679;51.218;6.786;2024-01-30T04:16:28;11.90;99.90
10583;DHT22;33679;51.218;6.786;2024-01-30T04:19:01;11.90;99.90
10583;DHT22;33679;51.218;6.786;2024-01-30T04:21:33;11.90;99.90
10583;DHT22;33679;51.218;6.786;2024-01-30T04:24:07;11.90;99.90
10583;DHT22;33679;51.218;6.786;2024-01-30T04:26:39;11.90;99.90
10583;DHT22;33679;51.218;6.786;2024-01-30T04:29:12;11.90;99.90
10583;DHT22;33679;51.218;6.786;2024-01-30T04:31:44;11.90;99.90
10583;DHT22;33679;51.218;6.786;2024-01-30T04:34:17;11.90;99.90
10583;DHT22;33679;51.218;6.786;2024-01-30T04:36:49;11.90;99.90
10583;DHT22;33679;51.218;6.786;2024-01-30T04:39:24;11.80;99.90
10583;DHT22;33679;51.218;6.786;2024-01-30T04:41:56;11.80;99.90
10583;DHT22;33679;51.218;6.786;2024-01-30T04:44:29;11.80;99.90
10583;DHT22;33679;51.218;6.786;2024-01-30T04:47:02;11.80;99.90
10583;DHT22;33679;51.218;6.786;2024-01-30T04:49:36;11.80;99.90
10583;DHT22;33679;51.218;6.786;2024-01-30T04:52:08;11.70;99.90
10583;DHT22;33679;51.218;6.786;2024-01-30T04:54:42;11.80;99.90
10583;DHT22;33679;51.218;6.786;2024-01-30T04:57:15;11.80;99.90
10583;DHT22;33679;51.218;6.786;2024-01-30T04:59:47;11.70;99.90
10583;DHT22;33679;51.218;6.786;2024-01-30T05:02:19;11.70;99.90
10583;DHT22;33679;51.218;6.786;2024-01-30T05:04:57;11.70;99.90
10583;DHT22;33679;51.218;6.786;2024-01-30T05:07:29;11.70;99.90
10583;DHT22;33679;51.218;6.786;2024-01-30T05:10:04;11.70;99.90
10583;DHT22;33679;51.218;6.786;2024-01-30T05:12:40;11.70;99.90
10583;DHT22;33679;51.218;6.786;2024-01-30T05:15:12;11.70;99.90
10583;DHT22;33679;51.218;6.786;2024-01-30T05:17:44;11.70;99.90
10583;DHT22;33679;51.218;6.786;2024-01-30T05:20:17;11.70;99.90
10583;DHT22;33679;51.218;6.786;2024-01-30T05:22:52;11.70;99.90
10583;DHT22;33679;51.218;6.786;2024-01-30T05:25:26;11.70;99.90
10583;DHT22;33679;51.218;6.786;2024-01-30T05:27:59;11.80;99.90
10583;DHT22;33679;51.218;6.786;2024-01-30T05:30:32;11.80;99.90
10583;DHT22;33679;51.218;6.786;2024-01-30T05:33:04;11.80;99.90
10583;DHT22;33679;51.218;6.786;2024-01-30T05:35:37;11.70;99.90
10583;DHT22;33679;51.218;6.786;2024-01-30T05:38:10;11.70;99.90
10583;DHT22;33679;51.218;6.786;2024-01-30T05:40:45;11.70;99.90
10583;DHT22;33679;51.218;6.786;2024-01-30T05:43:18;11.70;99.90
10583;DHT22;33679;51.218;6.786;2024-01-30T05:45:52;11.70;99.90
10583;DHT22;33679;51.218;6.786;2024-01-30T05:48:24;11.70;99.90
10583;DHT22;33679;51.218;6.786;2024-01-30T05:50:57;11.70;99.90
10583;DHT22;33679;51.218;6.786;2024-01-30T05:53:30;11.70;99.90
10583;DHT22;33679;51.218;6.786;2024-01-30T05:56:05;11.70;99.90
10583;DHT22;33679;51.218;6.786;2024-01-30T05:58:40;11.70;99.90
10583;DHT22;33679;51.218;6.786;2024-01-30T06:01:17;11.70;99.90
10583;DHT22;33679;51.218;6.786;2024-01-30T06:03:49;11.60;99.90
10583;DHT22;33679;51.218;6.786;2024-01-30T06:06:21;11.70;99.90
10583;DHT22;33679;51.218;6.786;2024-01-30T06:08:55;11.70;99.90
10583;DHT22;33679;51.218;6.786;2024-01-30T06:11:29;11.70;99.90
10583;DHT22;33679;51.218;6.786;2024-01-30T06:14:02;11.70;99.90
10583;DHT22;33679;51.218;6.786;2024-01-30T06:16:34;11.60;99.90
10583;DHT22;33679;51.218;6.786;2024-01-30T06:19:09;11.60;99.90
10583;DHT22;33679;51.218;6.786;2024-01-30T06:21:44;11.60;99.90
10583;DHT22;33679;51.218;6.786;2024-01-30T06:24:17;11.70;99.90
10583;DHT22;33679;51.218;6.786;2024-01-30T06:26:51;11.70;99.90
10583;DHT22;33679;51.218;6.786;2024-01-30T06:29:23;11.70;99.90
10583;DHT22;33679;51.218;6.786;2024-01-30T06:31:59;11.70;99.90
10583;DHT22;33679;51.218;6.786;2024-01-30T06:34:33;11.70;99.90
10583;DHT22;33679;51.218;6.786;2024-01-30T06:37:05;11.70;99.90
10583;DHT22;33679;51.218;6.786;2024-01-30T06:39:38;11.70;99.90
10583;DHT22;33679;51.218;6.786;2024-01-30T06:42:13;11.70;99.90
10583;DHT22;33679;51.218;6.786;2024-01-30T06:44:48;11.70;99.90
10583;DHT22;33679;51.218;6.786;2024-01-30T06:47:21;11.60;99.90
10583;DHT22;33679;51.218;6.786;2024-01-30T06:49:53;11.60;99.90
10583;DHT22;33679;51.218;6.786;2024-01-30T06:52:27;11.60;99.90
10583;DHT22;33679;51.218;6.786;2024-01-30T06:55:05;11.60;99.90
10583;DHT22;33679;51.218;6.786;2024-01-30T06:57:39;11.60;99.90
10583;DHT22;33679;51.218;6.786;2024-01-30T07:00:13;11.60;99.90
10583;DHT22;33679;51.218;6.786;2024-01-30T07:02:49;11.60;99.90
10583;DHT22;33679;51.218;6.786;2024-01-30T07:05:24;11.70;99.90
10583;DHT22;33679;51.218;6.786;2024-01-30T07:07:56;11.70;99.90
10583;DHT22;33679;51.218;6.786;2024-01-30T07:10:29;11.70;99.90
10583;DHT22;33679;51.218;6.786;2024-01-30T07:13:03;11.70;99.90
10583;DHT22;33679;51.218;6.786;2024-01-30T07:15:36;11.70;99.90
10583;DHT22;33679;51.218;6.786;2024-01-30T07:18:09;11.70;99.90
10583;DHT22;33679;51.218;6.786;2024-01-30T07:20:41;11.70;99.90
10583;DHT22;33679;51.218;6.786;2024-01-30T07:23:17;11.80;99.90
10583;DHT22;33679;51.218;6.786;2024-01-30T07:25:50;11.80;99.90
10583;DHT22;33679;51.218;6.786;2024-01-30T07:28:24;11.80;99.90
10583;DHT22;33679;51.218;6.786;2024-01-30T07:30:56;11.80;99.90
10583;DHT22;33679;51.218;6.786;2024-01-30T07:33:32;11.80;99.90
10583;DHT22;33679;51.218;6.786;2024-01-30T07:36:07;11.90;99.90
10583;DHT22;33679;51.218;6.786;2024-01-30T07:38:49;11.90;99.90
10583;DHT22;33679;51.218;6.786;2024-01-30T07:41:21;11.90;99.90
10583;DHT22;33679;51.218;6.786;2024-01-30T07:43:57;11.90;99.90
10583;DHT22;33679;51.218;6.786;2024-01-30T07:46:30;11.90;99.90
10583;DHT22;33679;51.218;6.786;2024-01-30T07:49:03;12.00;99.90
10583;DHT22;33679;51.218;6.786;2024-01-30T07:51:36;12.00;99.90
10583;DHT22;33679;51.218;6.786;2024-01-30T07:54:12;12.00;99.90
10583;DHT22;33679;51.218;6.786;2024-01-30T07:56:44;12.00;99.90
10583;DHT22;33679;51.218;6.786;2024-01-30T07:59:18;12.00;99.90
10583;DHT22;33679;51.218;6.786;2024-01-30T08:01:53;12.00;99.90
10583;DHT22;33679;51.218;6.786;2024-01-30T08:04:26;12.10;99.90
10583;DHT22;33679;51.218;6.786;2024-01-30T08:07:06;12.10;99.90
10583;DHT22;33679;51.218;6.786;2024-01-30T08:09:38;12.10;99.90
10583;DHT22;33679;51.218;6.786;2024-01-30T08:12:13;12.10;99.90
10583;DHT22;33679;51.218;6.786;2024-01-30T08:14:50;12.10;99.90
10583;DHT22;33679;51.218;6.786;2024-01-30T08:17:22;12.10;99.90
10583;DHT22;33679;51.218;6.786;2024-01-30T08:19:55;12.20;99.90
10583;DHT22;33679;51.218;6.786;2024-01-30T08:22:27;12.20;99.90
10583;DHT22;33679;51.218;6.786;2024-01-30T08:25:01;12.20;99.90
10583;DHT22;33679;51.218;6.786;2024-01-30T08:27:38;12.20;99.90
10583;DHT22;33679;51.218;6.786;2024-01-30T08:30:17;12.20;99.90
10583;DHT22;33679;51.218;6.786;2024-01-30T08:32:50;12.30;99.90
10583;DHT22;33679;51.218;6.786;2024-01-30T08:35:26;12.30;99.90
10583;DHT22;33679;51.218;6.786;2024-01-30T08:38:01;12.40;99.90
10583;DHT22;33679;51.218;6.786;2024-01-30T08:40:37;12.40;99.90
10583;DHT22;33679;51.218;6.786;2024-01-30T08:43:12;12.40;99.90
10583;DHT22;33679;51.218;6.786;2024-01-30T08:45:48;12.40;99.90
10583;DHT22;33679;51.218;6.786;2024-01-30T08:48:21;12.40;99.90
10583;DHT22;33679;51.218;6.786;2024-01-30T08:50:56;12.50;99.90
10583;DHT22;33679;51.218;6.786;2024-01-30T08:53:29;12.50;99.90
10583;DHT22;33679;51.218;6.786;2024-01-30T08:58:57;12.60;99.90
10583;DHT22;33679;51.218;6.786;2024-01-30T09:01:33;12.60;99.90
10583;DHT22;33679;51.218;6.786;2024-01-30T09:04:08;12.60;99.90
10583;DHT22;33679;51.218;6.786;2024-01-30T09:06:44;12.70;99.90
10583;DHT22;33679;51.218;6.786;2024-01-30T09:09:17;12.70;99.90
10583;DHT22;33679;51.218;6.786;2024-01-30T09:11:53;12.70;99.90
10583;DHT22;33679;51.218;6.786;2024-01-30T09:14:26;12.70;99.90
10583;DHT22;33679;51.218;6.786;2024-01-30T09:17:04;12.70;99.90
10583;DHT22;33679;51.218;6.786;2024-01-30T09:19:41;12.70;99.90
10583;DHT22;33679;51.218;6.786;2024-01-30T09:22:16;12.80;99.90
10583;DHT22;33679;51.218;6.786;2024-01-30T09:24:50;12.80;99.90
10583;DHT22;33679;51.218;6.786;2024-01-30T09:27:41;12.90;99.90
10583;DHT22;33679;51.218;6.786;2024-01-30T09:30:17;12.90;99.90
10583;DHT22;33679;51.218;6.786;2024-01-30T09:32:55;12.90;99.90
10583;DHT22;33679;51.218;6.786;2024-01-30T09:35:29;13.00;99.90
10583;DHT22;33679;51.218;6.786;2024-01-30T09:38:03;13.00;99.90
10583;DHT22;33679;51.218;6.786;2024-01-30T09:40:38;13.10;99.90
10583;DHT22;33679;51.218;6.786;2024-01-30T09:43:16;13.20;99.90
10583;DHT22;33679;51.218;6.786;2024-01-30T09:45:52;13.20;99.90
10583;DHT22;33679;51.218;6.786;2024-01-30T09:48:28;13.30;99.90
10583;DHT22;33679;51.218;6.786;2024-01-30T09:51:05;13.30;99.90
10583;DHT22;33679;51.218;6.786;2024-01-30T09:53:42;13.40;99.90
10583;DHT22;33679;51.218;6.786;2024-01-30T09:56:16;13.40;99.90
10583;DHT22;33679;51.218;6.786;2024-01-30T09:58:49;13.40;99.90
10583;DHT22;33679;51.218;6.786;2024-01-30T10:01:25;13.50;99.90
10583;DHT22;33679;51.218;6.786;2024-01-30T10:04:01;13.50;99.90
10583;DHT22;33679;51.218;6.786;2024-01-30T10:06:34;13.60;99.90
10583;DHT22;33679;51.218;6.786;2024-01-30T10:09:09;13.60;99.90
10583;DHT22;33679;51.218;6.786;2024-01-30T10:11:42;13.60;99.90
10583;DHT22;33679;51.218;6.786;2024-01-30T10:14:15;13.60;99.90
10583;DHT22;33679;51.218;6.786;2024-01-30T10:16:50;13.60;99.90
10583;DHT22;33679;51.218;6.786;2024-01-30T10:19:25;13.70;99.90
10583;DHT22;33679;51.218;6.786;2024-01-30T10:22:00;13.70;99.90
10583;DHT22;33679;51.218;6.786;2024-01-30T10:24:33;13.70;99.90
10583;DHT22;33679;51.218;6.786;2024-01-30T10:27:08;13.70;99.90
10583;DHT22;33679;51.218;6.786;2024-01-30T10:29:48;13.80;99.90
10583;DHT22;33679;51.218;6.786;2024-01-30T10:32:20;13.80;99.90
10583;DHT22;33679;51.218;6.786;2024-01-30T10:34:56;13.80;99.90
10583;DHT22;33679;51.218;6.786;2024-01-30T10:37:36;13.90;99.90
10583;DHT22;33679;51.218;6.786;2024-01-30T10:40:13;13.90;99.90
10583;DHT22;33679;51.218;6.786;2024-01-30T10:42:47;13.90;99.90
10583;DHT22;33679;51.218;6.786;2024-01-30T10:45:21;13.90;99.90
10583;DHT22;33679;51.218;6.786;2024-01-30T10:47:55;14.00;99.90
10583;DHT22;33679;51.218;6.786;2024-01-30T10:50:32;14.00;99.90
10583;DHT22;33679;51.218;6.786;2024-01-30T10:53:06;14.10;99.90
10583;DHT22;33679;51.218;6.786;2024-01-30T10:55:47;14.10;99.90
10583;DHT22;33679;51.218;6.786;2024-01-30T10:58:26;14.20;99.90
10583;DHT22;33679;51.218;6.786;2024-01-30T11:01:03;14.30;99.90
10583;DHT22;33679;51.218;6.786;2024-01-30T11:03:55;14.40;99.90
10583;DHT22;33679;51.218;6.786;2024-01-30T11:06:30;14.40;99.90
10583;DHT22;33679;51.218;6.786;2024-01-30T11:09:09;14.50;99.90
10583;DHT22;33679;51.218;6.786;2024-01-30T11:11:50;14.60;99.90
10583;DHT22;33679;51.218;6.786;2024-01-30T11:14:30;14.60;99.90
10583;DHT22;33679;51.218;6.786;2024-01-30T11:17:12;14.60;99.90
10583;DHT22;33679;51.218;6.786;2024-01-30T11:19:46;14.60;99.90
10583;DHT22;33679;51.218;6.786;2024-01-30T11:22:24;14.70;99.90
10583;DHT22;33679;51.218;6.786;2024-01-30T11:24:56;14.80;99.90
10583;DHT22;33679;51.218;6.786;2024-01-30T11:27:30;14.80;99.90
10583;DHT22;33679;51.218;6.786;2024-01-30T11:30:05;14.80;99.90
10583;DHT22;33679;51.218;6.786;2024-01-30T11:32:39;14.90;99.90
10583;DHT22;33679;51.218;6.786;2024-01-30T11:35:13;14.80;99.90
10583;DHT22;33679;51.218;6.786;2024-01-30T11:37:50;14.90;99.90
10583;DHT22;33679;51.218;6.786;2024-01-30T11:40:27;14.90;99.90
10583;DHT22;33679;51.218;6.786;2024-01-30T11:43:00;14.90;99.90
10583;DHT22;33679;51.218;6.786;2024-01-30T11:45:34;15.00;99.90
10583;DHT22;33679;51.218;6.786;2024-01-30T11:48:09;15.00;99.90
10583;DHT22;33679;51.218;6.786;2024-01-30T11:50:44;15.00;99.90
10583;DHT22;33679;51.218;6.786;2024-01-30T11:53:19;15.00;99.90
10583;DHT22;33679;51.218;6.786;2024-01-30T11:55:51;15.00;99.90
10583;DHT22;33679;51.218;6.786;2024-01-30T11:58:25;15.10;99.90
10583;DHT22;33679;51.218;6.786;2024-01-30T12:00:58;15.10;99.90
10583;DHT22;33679;51.218;6.786;2024-01-30T12:03:31;15.10;99.90
10583;DHT22;33679;51.218;6.786;2024-01-30T12:06:05;15.10;99.90
10583;DHT22;33679;51.218;6.786;2024-01-30T12:09:02;15.10;99.90
10583;DHT22;33679;51.218;6.786;2024-01-30T12:11:46;15.10;99.90
10583;DHT22;33679;51.218;6.786;2024-01-30T12:14:19;15.10;99.90
10583;DHT22;33679;51.218;6.786;2024-01-30T12:16:55;15.10;99.90
10583;DHT22;33679;51.218;6.786;2024-01-30T12:19:30;15.10;99.90
10583;DHT22;33679;51.218;6.786;2024-01-30T12:22:06;15.10;99.90
10583;DHT22;33679;51.218;6.786;2024-01-30T12:24:48;15.10;99.90
10583;DHT22;33679;51.218;6.786;2024-01-30T12:27:21;15.10;99.90
10583;DHT22;33679;51.218;6.786;2024-01-30T12:30:00;15.10;99.90
10583;DHT22;33679;51.218;6.786;2024-01-30T12:32:37;15.10;99.90
10583;DHT22;33679;51.218;6.786;2024-01-30T12:35:20;15.10;99.90
10583;DHT22;33679;51.218;6.786;2024-01-30T12:37:53;15.10;99.90
10583;DHT22;33679;51.218;6.786;2024-01-30T12:40:27;15.10;99.90
10583;DHT22;33679;51.218;6.786;2024-01-30T12:43:01;15.10;99.90
10583;DHT22;33679;51.218;6.786;2024-01-30T12:45:35;15.10;99.90
10583;DHT22;33679;51.218;6.786;2024-01-30T12:48:09;15.10;99.90
10583;DHT22;33679;51.218;6.786;2024-01-30T12:50:41;15.10;99.90
10583;DHT22;33679;51.218;6.786;2024-01-30T12:53:14;15.10;99.90
10583;DHT22;33679;51.218;6.786;2024-01-30T12:55:49;15.10;99.90
10583;DHT22;33679;51.218;6.786;2024-01-30T12:58:21;15.10;99.90
10583;DHT22;33679;51.218;6.786;2024-01-30T13:00:54;15.10;99.90
10583;DHT22;33679;51.218;6.786;2024-01-30T13:03:26;15.20;99.90
10583;DHT22;33679;51.218;6.786;2024-01-30T13:06:10;15.20;99.90
10583;DHT22;33679;51.218;6.786;2024-01-30T13:08:43;15.20;99.90
10583;DHT22;33679;51.218;6.786;2024-01-30T13:11:18;15.10;99.90
10583;DHT22;33679;51.218;6.786;2024-01-30T13:13:51;15.10;99.90
10583;DHT22;33679;51.218;6.786;2024-01-30T13:16:26;15.10;99.90
10583;DHT22;33679;51.218;6.786;2024-01-30T13:18:59;15.10;99.90
10583;DHT22;33679;51.218;6.786;2024-01-30T13:21:33;15.10;99.90
10583;DHT22;33679;51.218;6.786;2024-01-30T13:24:06;15.10;99.90
10583;DHT22;33679;51.218;6.786;2024-01-30T13:26:42;15.10;99.90
10583;DHT22;33679;51.218;6.786;2024-01-30T13:29:16;15.10;99.90
10583;DHT22;33679;51.218;6.786;2024-01-30T13:31:49;15.10;99.90
10583;DHT22;33679;51.218;6.786;2024-01-30T13:34:21;15.10;99.90
10583;DHT22;33679;51.218;6.786;2024-01-30T13:36:54;15.10;99.90
10583;DHT22;33679;51.218;6.786;2024-01-30T13:39:26;15.10;99.90
10583;DHT22;33679;51.218;6.786;2024-01-30T13:42:01;15.10;99.90
10583;DHT22;33679;51.218;6.786;2024-01-30T13:44:34;15.10;99.90
10583;DHT22;33679;51.218;6.786;2024-01-30T13:47:07;15.10;99.90
10583;DHT22;33679;51.218;6.786;2024-01-30T13:49:42;15.10;99.90
10583;DHT22;33679;51.218;6.786;2024-01-30T13:52:16;15.10;99.90
10583;DHT22;33679;51.218;6.786;2024-01-30T13:54:49;15.10;99.90
10583;DHT22;33679;51.218;6.786;2024-01-30T13:57:25;15.10;99.90
10583;DHT22;33679;51.218;6.786;2024-01-30T14:00:07;15.10;99.90
10583;DHT22;33679;51.218;6.786;2024-01-30T14:02:46;15.20;99.90
10583;DHT22;33679;51.218;6.786;2024-01-30T14:05:20;15.20;99.90
10583;DHT22;33679;51.218;6.786;2024-01-30T14:07:54;15.20;99.90
10583;DHT22;33679;51.218;6.786;2024-01-30T14:10:27;15.20;99.90
10583;DHT22;33679;51.218;6.786;2024-01-30T14:13:01;15.20;99.90
10583;DHT22;33679;51.218;6.786;2024-01-30T14:15:34;15.20;99.90
10583;DHT22;33679;51.218;6.786;2024-01-30T14:18:08;15.20;99.90
10583;DHT22;33679;51.218;6.786;2024-01-30T14:20:45;15.30;99.90
10583;DHT22;33679;51.218;6.786;2024-01-30T14:23:18;15.40;99.90
10583;DHT22;33679;51.218;6.786;2024-01-30T14:25:50;15.40;99.90
10583;DHT22;33679;51.218;6.786;2024-01-30T14:28:31;15.30;99.90
10583;DHT22;33679;51.218;6.786;2024-01-30T14:31:03;15.40;99.90
10583;DHT22;33679;51.218;6.786;2024-01-30T14:33:42;15.40;99.90
10583;DHT22;33679;51.218;6.786;2024-01-30T14:36:16;15.40;99.90
10583;DHT22;33679;51.218;6.786;2024-01-30T14:38:50;15.40;99.90
10583;DHT22;33679;51.218;6.786;2024-01-30T14:41:22;15.50;99.90
10583;DHT22;33679;51.218;6.786;2024-01-30T14:43:56;15.50;99.90
10583;DHT22;33679;51.218;6.786;2024-01-30T14:46:30;15.50;99.90
10583;DHT22;33679;51.218;6.786;2024-01-30T14:49:08;15.50;99.90
10583;DHT22;33679;51.218;6.786;2024-01-30T14:51:41;15.50;99.90
10583;DHT22;33679;51.218;6.786;2024-01-30T14:54:13;15.50;99.90
10583;DHT22;33679;51.218;6.786;2024-01-30T14:56:46;15.50;99.90
10583;DHT22;33679;51.218;6.786;2024-01-30T14:59:25;15.40;99.90
10583;DHT22;33679;51.218;6.786;2024-01-30T15:02:06;15.40;99.90
10583;DHT22;33679;51.218;6.786;2024-01-30T15:04:40;15.40;99.90
10583;DHT22;33679;51.218;6.786;2024-01-30T15:07:14;15.40;99.90
10583;DHT22;33679;51.218;6.786;2024-01-30T15:09:52;15.40;99.90
10583;DHT22;33679;51.218;6.786;2024-01-30T15:12:29;15.30;99.90
10583;DHT22;33679;51.218;6.786;2024-01-30T15:15:20;15.30;99.90
10583;DHT22;33679;51.218;6.786;2024-01-30T15:17:53;15.30;99.90
10583;DHT22;33679;51.218;6.786;2024-01-30T15:23:35;15.10;99.90
10583;DHT22;33679;51.218;6.786;2024-01-30T15:26:12;15.10;99.90
10583;DHT22;33679;51.218;6.786;2024-01-30T15:28:45;15.10;99.90
10583;DHT22;33679;51.218;6.786;2024-01-30T15:31:19;15.00;99.90
10583;DHT22;33679;51.218;6.786;2024-01-30T15:33:52;14.90;99.90
10583;DHT22;33679;51.218;6.786;2024-01-30T15:36:25;14.90;99.90
10583;DHT22;33679;51.218;6.786;2024-01-30T15:39:03;14.80;99.90
10583;DHT22;33679;51.218;6.786;2024-01-30T15:44:47;14.80;99.90
10583;DHT22;33679;51.218;6.786;2024-01-30T15:47:30;14.80;99.90
10583;DHT22;33679;51.218;6.786;2024-01-30T15:50:05;14.80;99.90
10583;DHT22;33679;51.218;6.786;2024-01-30T15:52:40;14.70;99.90
10583;DHT22;33679;51.218;6.786;2024-01-30T15:55:14;14.70;99.90
10583;DHT22;33679;51.218;6.786;2024-01-30T15:57:47;14.60;99.90
10583;DHT22;33679;51.218;6.786;2024-01-30T16:00:22;14.60;99.90
10583;DHT22;33679;51.218;6.786;2024-01-30T16:02:58;14.60;99.90
10583;DHT22;33679;51.218;6.786;2024-01-30T16:05:33;14.60;99.90
10583;DHT22;33679;51.218;6.786;2024-01-30T16:08:06;14.60;99.90
10583;DHT22;33679;51.218;6.786;2024-01-30T16:10:38;14.60;99.90
10583;DHT22;33679;51.218;6.786;2024-01-30T16:16:24;14.70;99.90
10583;DHT22;33679;51.218;6.786;2024-01-30T16:19:00;14.70;99.90
10583;DHT22;33679;51.218;6.786;2024-01-30T16:21:35;14.60;99.90
10583;DHT22;33679;51.218;6.786;2024-01-30T16:27:05;14.50;99.90
10583;DHT22;33679;51.218;6.786;2024-01-30T16:29:47;14.40;99.90